Time;durP1;ratioP1;P1;durP2;ratioP2;P2;SDS_P1;SDS_P2;PMS_P1;PMS_P2;Temp;Humidity;BMP_temperature;BMP_pressure;BME280_temperature;BME280_humidity;BME280_pressure;Samples;Min_cycle;Max_cycle;Signal;HPM_P1;HPM_P2
2022/07/19 00:00:14;;;;;;;4.95;3.35;;;;;;;;;;5023691;28;20253;-68
2022/07/19 00:02:42;;;;;;;3.58;3.17;;;;;;;;;;5018203;28;20525;-69
2022/07/19 00:05:11;;;;;;;2.92;2.65;;;;;;;;;;5024694;28;20219;-69
2022/07/19 00:07:39;;;;;;;3.30;3.00;;;;;;;;;;5021012;28;20241;-69
2022/07/19 00:10:07;;;;;;;3.20;2.90;;;;;;;;;;5016914;28;20296;-69
2022/07/19 00:12:35;;;;;;;4.03;2.60;;;;;;;;;;5028993;28;20202;-68
2022/07/19 00:15:04;;;;;;;4.40;2.57;;;;;;;;;;5059048;28;20201;-69
2022/07/19 00:17:31;;;;;;;3.63;2.50;;;;;;;;;;5028711;28;20237;-69
2022/07/19 00:19:59;;;;;;;2.97;2.33;;;;;;;;;;5026416;28;20214;-69
2022/07/19 00:22:26;;;;;;;5.27;2.73;;;;;;;;;;5045848;28;20557;-68
2022/07/19 00:24:54;;;;;;;3.10;2.33;;;;;;;;;;5024031;28;20203;-68
2022/07/19 00:27:23;;;;;;;3.60;3.30;;;;;;;;;;5022272;28;20761;-68
2022/07/19 00:29:51;;;;;;;4.13;2.87;;;;;;;;;;5039870;28;20272;-68
2022/07/19 00:32:18;;;;;;;3.07;2.77;;;;;;;;;;5045239;28;20748;-68
2022/07/19 00:34:45;;;;;;;3.10;2.77;;;;;;;;;;5024030;28;20339;-68
2022/07/19 00:37:13;;;;;;;3.60;2.97;;;;;;;;;;5038576;28;20264;-68
2022/07/19 00:39:40;;;;;;;7.17;3.00;;;;;;;;;;5021927;28;20260;-67
2022/07/19 00:42:08;;;;;;;3.20;2.90;;;;;;;;;;5036263;28;20210;-67
2022/07/19 00:44:35;;;;;;;2.60;2.40;;;;;;;;;;5023424;28;20293;-68
2022/07/19 00:47:03;;;;;;;3.27;2.60;;;;;;;;;;5049374;28;20241;-67
2022/07/19 00:49:31;;;;;;;2.93;2.57;;;;;;;;;;5029573;28;20198;-68
2022/07/19 00:51:59;;;;;;;3.33;3.03;;;;;;;;;;5034538;28;20211;-68
2022/07/19 00:54:27;;;;;;;2.80;2.50;;;;;;;;;;5023895;28;20272;-68
2022/07/19 00:56:55;;;;;;;4.80;3.03;;;;;;;;;;5019821;28;20222;-67
2022/07/19 00:59:23;;;;;;;5.10;2.90;;;;;;;;;;5035665;28;20198;-68
2022/07/19 01:01:51;;;;;;;4.50;3.07;;;;;;;;;;5020971;28;20780;-68
2022/07/19 01:04:19;;;;;;;3.93;2.60;;;;;;;;;;5040065;28;20213;-67
2022/07/19 01:06:46;;;;;;;3.23;2.77;;;;;;;;;;5029468;28;20718;-68
2022/07/19 01:09:14;;;;;;;3.37;2.60;;;;;;;;;;5029870;28;20211;-68
2022/07/19 01:11:41;;;;;;;3.97;2.83;;;;;;;;;;5045911;28;20226;-68
2022/07/19 01:14:09;;;;;;;3.93;3.07;;;;;;;;;;5026701;28;20216;-69
2022/07/19 01:16:36;;;;;;;4.67;2.83;;;;;;;;;;5023475;28;20234;-67
2022/07/19 01:19:06;;;;;;;4.00;3.20;;;;;;;;;;5037095;28;20748;-67
2022/07/19 01:21:34;;;;;;;3.33;2.57;;;;;;;;;;5014910;28;20218;-67
2022/07/19 01:24:02;;;;;;;3.40;3.10;;;;;;;;;;5027507;28;20682;-69
2022/07/19 01:26:30;;;;;;;4.10;3.00;;;;;;;;;;5025432;28;20305;-69
2022/07/19 01:28:57;;;;;;;3.30;3.00;;;;;;;;;;5028619;28;21991;-67
2022/07/19 01:31:25;;;;;;;3.20;3.00;;;;;;;;;;5023865;28;20234;-69
2022/07/19 01:33:52;;;;;;;3.07;2.80;;;;;;;;;;5022677;28;20234;-68
2022/07/19 01:36:20;;;;;;;3.20;2.90;;;;;;;;;;5015631;28;20218;-69
2022/07/19 01:38:47;;;;;;;3.10;2.90;;;;;;;;;;5028775;28;20540;-67
2022/07/19 01:41:17;;;;;;;5.43;2.70;;;;;;;;;;5018583;28;20260;-68
2022/07/19 01:43:45;;;;;;;4.00;3.27;;;;;;;;;;5026703;28;20213;-68
2022/07/19 01:46:12;;;;;;;3.13;2.80;;;;;;;;;;5032957;28;20226;-66
2022/07/19 01:48:40;;;;;;;3.10;2.80;;;;;;;;;;5026802;28;20293;-69
2022/07/19 01:51:07;;;;;;;2.93;2.73;;;;;;;;;;5045868;28;20233;-68
2022/07/19 01:53:35;;;;;;;3.93;2.87;;;;;;;;;;5036988;28;20293;-66
2022/07/19 01:56:06;;;;;;;4.57;2.93;;;;;;;;;;5043780;28;20242;-68
2022/07/19 01:58:34;;;;;;;3.50;3.00;;;;;;;;;;5040695;28;20252;-69
2022/07/19 02:01:01;;;;;;;5.70;2.90;;;;;;;;;;5050284;28;20213;-68
2022/07/19 02:03:29;;;;;;;3.33;3.07;;;;;;;;;;5013966;28;20268;-67
2022/07/19 02:05:56;;;;;;;4.40;3.30;;;;;;;;;;5013011;28;20285;-68
2022/07/19 02:08:24;;;;;;;4.83;3.40;;;;;;;;;;5021304;28;20264;-69
2022/07/19 02:10:52;;;;;;;4.80;3.30;;;;;;;;;;5020109;28;20240;-68
2022/07/19 02:13:19;;;;;;;4.47;3.00;;;;;;;;;;5015755;28;20302;-68
2022/07/19 02:15:47;;;;;;;3.17;2.97;;;;;;;;;;5026209;28;20227;-68
2022/07/19 02:18:14;;;;;;;3.03;2.73;;;;;;;;;;5023726;28;20202;-68
2022/07/19 02:20:42;;;;;;;3.27;2.70;;;;;;;;;;5007280;28;20217;-67
2022/07/19 02:23:09;;;;;;;3.37;3.07;;;;;;;;;;5020912;28;21289;-68
2022/07/19 02:25:37;;;;;;;4.37;3.00;;;;;;;;;;5022495;28;20553;-69
2022/07/19 02:28:04;;;;;;;6.70;3.20;;;;;;;;;;5020310;28;20211;-69
2022/07/19 02:30:31;;;;;;;5.97;3.10;;;;;;;;;;5019952;28;20301;-68
2022/07/19 02:32:59;;;;;;;4.13;2.93;;;;;;;;;;5040862;28;20201;-68
2022/07/19 02:35:26;;;;;;;4.00;3.23;;;;;;;;;;5024637;28;20207;-68
2022/07/19 02:37:54;;;;;;;2.60;2.50;;;;;;;;;;5035819;28;20703;-68
2022/07/19 02:40:21;;;;;;;3.13;2.93;;;;;;;;;;5038055;28;20210;-68
2022/07/19 02:42:49;;;;;;;4.67;2.90;;;;;;;;;;5019407;28;20209;-66
2022/07/19 02:45:16;;;;;;;3.70;2.90;;;;;;;;;;5036814;28;20271;-69
2022/07/19 02:47:43;;;;;;;2.97;2.77;;;;;;;;;;5030498;28;20214;-67
2022/07/19 02:50:11;;;;;;;3.37;3.10;;;;;;;;;;5043094;28;20208;-69
2022/07/19 02:52:39;;;;;;;3.10;2.83;;;;;;;;;;5030774;28;20203;-68
2022/07/19 02:55:06;;;;;;;4.67;3.10;;;;;;;;;;5023656;28;20281;-68
2022/07/19 02:57:34;;;;;;;3.40;3.10;;;;;;;;;;5026465;28;20228;-68
2022/07/19 03:00:02;;;;;;;7.53;5.23;;;;;;;;;;5043027;28;20297;-68
2022/07/19 03:02:29;;;;;;;4.67;3.47;;;;;;;;;;5043268;28;20202;-68
2022/07/19 03:04:57;;;;;;;3.80;3.13;;;;;;;;;;5037790;28;20586;-66
2022/07/19 03:07:24;;;;;;;4.37;3.20;;;;;;;;;;5044884;28;20304;-68
2022/07/19 03:09:51;;;;;;;3.47;3.13;;;;;;;;;;5025836;28;20202;-68
2022/07/19 03:12:19;;;;;;;6.23;2.97;;;;;;;;;;5022582;28;20222;-68
2022/07/19 03:14:46;;;;;;;2.97;2.77;;;;;;;;;;5023606;28;20207;-67
2022/07/19 03:17:14;;;;;;;3.07;2.70;;;;;;;;;;5020555;28;20226;-67
2022/07/19 03:19:41;;;;;;;3.67;2.93;;;;;;;;;;5030005;28;20236;-68
2022/07/19 03:22:09;;;;;;;3.37;3.07;;;;;;;;;;5030524;28;20260;-68
2022/07/19 03:24:36;;;;;;;3.80;3.40;;;;;;;;;;5031103;28;20202;-68
2022/07/19 03:27:04;;;;;;;3.50;3.13;;;;;;;;;;5037481;28;20272;-68
2022/07/19 03:29:31;;;;;;;4.47;3.07;;;;;;;;;;5023845;28;20963;-68
2022/07/19 03:31:58;;;;;;;5.13;3.13;;;;;;;;;;5043792;28;20233;-68
2022/07/19 03:34:28;;;;;;;3.73;3.30;;;;;;;;;;5015226;28;20234;-68
2022/07/19 03:36:56;;;;;;;3.47;2.93;;;;;;;;;;5017149;28;20235;-67
2022/07/19 03:39:23;;;;;;;5.17;3.13;;;;;;;;;;5021343;28;20235;-68
2022/07/19 03:41:50;;;;;;;4.60;3.13;;;;;;;;;;5023958;28;20298;-68
2022/07/19 03:44:26;;;;;;;3.13;2.87;;;;;;;;;;5036523;28;20205;-68
2022/07/19 03:46:53;;;;;;;3.60;2.80;;;;;;;;;;5047814;28;20225;-68
2022/07/19 03:49:21;;;;;;;2.93;2.70;;;;;;;;;;5025829;28;20205;-68
2022/07/19 03:51:48;;;;;;;3.87;3.57;;;;;;;;;;5024081;28;20784;-68
2022/07/19 03:54:15;;;;;;;4.10;3.47;;;;;;;;;;5020344;28;20202;-67
2022/07/19 03:56:43;;;;;;;4.70;3.57;;;;;;;;;;5009777;28;20238;-68
2022/07/19 03:59:10;;;;;;;3.60;3.30;;;;;;;;;;5025968;28;20297;-68
2022/07/19 04:01:37;;;;;;;5.33;3.40;;;;;;;;;;5020433;28;20591;-68
2022/07/19 04:04:05;;;;;;;4.03;3.30;;;;;;;;;;5017035;28;20297;-67
2022/07/19 04:06:33;;;;;;;5.07;3.27;;;;;;;;;;5020206;28;20232;-69
2022/07/19 04:09:02;;;;;;;4.67;3.60;;;;;;;;;;5042944;28;20215;-69
2022/07/19 04:11:29;;;;;;;3.67;3.37;;;;;;;;;;5017972;28;20607;-68
2022/07/19 04:13:56;;;;;;;5.00;3.60;;;;;;;;;;5026725;28;20257;-68
2022/07/19 04:16:24;;;;;;;4.03;3.63;;;;;;;;;;5042895;28;20600;-68
2022/07/19 04:18:52;;;;;;;4.00;3.60;;;;;;;;;;5027945;28;20202;-68
2022/07/19 04:21:19;;;;;;;3.30;2.97;;;;;;;;;;5030417;28;20237;-68
2022/07/19 04:23:46;;;;;;;4.33;3.33;;;;;;;;;;5026461;28;20224;-68
2022/07/19 04:26:14;;;;;;;3.43;3.13;;;;;;;;;;5035372;28;20230;-67
2022/07/19 04:28:41;;;;;;;3.40;3.13;;;;;;;;;;5034953;28;20694;-68
2022/07/19 04:31:09;;;;;;;7.63;3.33;;;;;;;;;;5024952;28;20252;-68
2022/07/19 04:33:36;;;;;;;3.70;3.33;;;;;;;;;;5039594;28;20649;-68
2022/07/19 04:36:04;;;;;;;3.50;3.00;;;;;;;;;;5029974;28;20230;-68
2022/07/19 04:38:32;;;;;;;4.13;3.60;;;;;;;;;;5040376;28;20198;-68
2022/07/19 04:40:59;;;;;;;4.20;3.13;;;;;;;;;;5008652;28;20208;-68
2022/07/19 04:43:27;;;;;;;7.17;3.40;;;;;;;;;;5040830;28;20289;-67
2022/07/19 04:45:54;;;;;;;5.30;3.60;;;;;;;;;;5032677;28;20240;-68
2022/07/19 04:48:22;;;;;;;3.80;3.50;;;;;;;;;;5017131;28;20590;-67
2022/07/19 04:50:49;;;;;;;3.57;3.27;;;;;;;;;;5021231;28;20596;-68
2022/07/19 04:53:16;;;;;;;4.10;3.70;;;;;;;;;;5022942;28;22700;-68
2022/07/19 04:55:44;;;;;;;3.70;3.40;;;;;;;;;;5026382;28;20230;-66
2022/07/19 04:58:11;;;;;;;4.63;3.47;;;;;;;;;;5025644;28;20202;-69
2022/07/19 05:00:38;;;;;;;5.10;3.67;;;;;;;;;;5024268;28;20210;-68
2022/07/19 05:03:06;;;;;;;5.87;3.60;;;;;;;;;;5034984;28;20212;-67
2022/07/19 05:05:33;;;;;;;4.80;3.30;;;;;;;;;;5023759;28;20203;-67
2022/07/19 05:08:01;;;;;;;4.53;3.43;;;;;;;;;;5020217;28;20785;-68
2022/07/19 05:10:28;;;;;;;4.30;3.47;;;;;;;;;;5022523;28;20210;-68
2022/07/19 05:12:56;;;;;;;4.20;3.57;;;;;;;;;;5031775;28;20577;-69
2022/07/19 05:15:23;;;;;;;5.10;3.40;;;;;;;;;;5025435;28;20199;-68
2022/07/19 05:17:51;;;;;;;4.07;3.50;;;;;;;;;;5023135;28;20471;-68
2022/07/19 05:20:18;;;;;;;3.77;3.37;;;;;;;;;;5024911;28;20817;-68
2022/07/19 05:22:46;;;;;;;8.10;3.67;;;;;;;;;;5024568;28;20266;-68
2022/07/19 05:25:14;;;;;;;3.87;3.47;;;;;;;;;;5020253;28;20803;-69
2022/07/19 05:27:43;;;;;;;6.43;3.50;;;;;;;;;;5018126;28;20233;-69
2022/07/19 05:30:11;;;;;;;3.80;3.50;;;;;;;;;;5036613;28;20270;-66
2022/07/19 05:32:39;;;;;;;4.37;3.50;;;;;;;;;;5022022;28;20222;-67
2022/07/19 05:35:07;;;;;;;3.78;3.30;;;;;;;;;;5021365;28;21642;-68
2022/07/19 05:37:34;;;;;;;4.55;3.30;;;;;;;;;;5019710;28;20222;-68
2022/07/19 05:40:02;;;;;;;6.35;4.75;;;;;;;;;;5019490;28;20686;-67
2022/07/19 05:42:29;;;;;;;7.05;4.57;;;;;;;;;;5034142;28;20218;-68
2022/07/19 05:44:57;;;;;;;3.30;3.00;;;;;;;;;;5023215;28;20563;-68
2022/07/19 05:47:24;;;;;;;3.30;2.50;;;;;;;;;;5019820;28;20226;-67
2022/07/19 05:49:51;;;;;;;3.15;2.53;;;;;;;;;;5035947;28;20206;-68
2022/07/19 05:52:19;;;;;;;3.05;2.75;;;;;;;;;;5023222;28;20276;-68
2022/07/19 05:54:52;;;;;;;4.47;2.50;;;;;;;;;;5026042;28;20206;-67
2022/07/19 05:57:19;;;;;;;3.88;2.50;;;;;;;;;;5026803;28;20596;-68
2022/07/19 05:59:46;;;;;;;4.00;2.15;;;;;;;;;;5028228;28;20256;-68
2022/07/19 06:02:14;;;;;;;6.22;2.08;;;;;;;;;;5055452;28;20209;-69
2022/07/19 06:04:42;;;;;;;2.28;2.10;;;;;;;;;;5041161;28;20202;-69
2022/07/19 06:07:09;;;;;;;1.33;1.23;;;;;;;;;;5035507;28;20222;-67
2022/07/19 06:09:37;;;;;;;3.03;1.30;;;;;;;;;;5055288;28;20210;-68
2022/07/19 06:12:04;;;;;;;1.65;1.38;;;;;;;;;;5046517;28;20290;-67
2022/07/19 06:14:32;;;;;;;2.03;1.23;;;;;;;;;;5040013;28;20202;-69
2022/07/19 06:16:59;;;;;;;1.23;1.02;;;;;;;;;;5039494;28;20232;-67
2022/07/19 06:19:27;;;;;;;2.40;1.13;;;;;;;;;;5033412;28;20201;-68
2022/07/19 06:21:55;;;;;;;2.22;1.08;;;;;;;;;;5024573;28;20296;-68
2022/07/19 06:24:22;;;;;;;1.30;1.02;;;;;;;;;;5027610;28;20198;-68
2022/07/19 06:26:49;;;;;;;2.08;1.25;;;;;;;;;;5021449;28;20268;-67
2022/07/19 06:29:17;;;;;;;2.60;1.08;;;;;;;;;;5028099;28;20206;-67
2022/07/19 06:31:44;;;;;;;1.83;1.20;;;;;;;;;;5021182;28;20237;-68
2022/07/19 06:34:12;;;;;;;1.02;1.00;;;;;;;;;;5020141;28;20214;-68
2022/07/19 06:36:40;;;;;;;1.95;1.30;;;;;;;;;;5021781;28;20237;-69
2022/07/19 06:39:07;;;;;;;2.08;1.33;;;;;;;;;;5031286;28;20202;-68
2022/07/19 06:41:34;;;;;;;1.85;1.00;;;;;;;;;;5031429;28;20351;-68
2022/07/19 06:44:02;;;;;;;1.40;1.30;;;;;;;;;;5025602;28;20210;-68
2022/07/19 06:46:29;;;;;;;1.98;1.20;;;;;;;;;;5021711;28;20255;-68
2022/07/19 06:48:57;;;;;;;1.60;1.50;;;;;;;;;;5022407;28;20604;-68
2022/07/19 06:51:25;;;;;;;2.28;1.10;;;;;;;;;;5025756;28;20245;-68
2022/07/19 06:53:52;;;;;;;0.93;0.93;;;;;;;;;;5015108;28;20213;-69
2022/07/19 06:56:20;;;;;;;2.03;1.17;;;;;;;;;;5027347;28;20234;-67
2022/07/19 06:58:47;;;;;;;1.50;1.40;;;;;;;;;;5023256;28;20246;-67
2022/07/19 07:01:17;;;;;;;1.40;1.30;;;;;;;;;;5054640;28;20268;-67
2022/07/19 07:03:45;;;;;;;3.60;1.20;;;;;;;;;;5044075;28;20749;-67
2022/07/19 07:06:13;;;;;;;1.75;1.60;;;;;;;;;;5018128;28;20280;-68
2022/07/19 07:08:40;;;;;;;2.88;1.20;;;;;;;;;;5035578;28;20214;-68
2022/07/19 07:11:07;;;;;;;2.25;1.42;;;;;;;;;;5020984;28;20209;-67
2022/07/19 07:13:35;;;;;;;1.33;1.23;;;;;;;;;;5017652;28;20206;-68
2022/07/19 07:16:03;;;;;;;2.53;1.40;;;;;;;;;;5015285;28;20785;-68
2022/07/19 07:18:30;;;;;;;1.88;1.50;;;;;;;;;;5037126;28;20214;-67
2022/07/19 07:20:57;;;;;;;1.30;1.20;;;;;;;;;;5036545;28;20688;-69
2022/07/19 07:23:26;;;;;;;2.17;1.60;;;;;;;;;;5029186;28;20691;-69
2022/07/19 07:25:54;;;;;;;2.33;1.30;;;;;;;;;;5023273;28;20240;-68
2022/07/19 07:28:21;;;;;;;1.60;1.35;;;;;;;;;;5004787;28;20242;-69
2022/07/19 07:30:52;;;;;;;1.35;1.27;;;;;;;;;;5009255;28;20210;-67
2022/07/19 07:33:20;;;;;;;2.75;1.63;;;;;;;;;;5006644;28;20507;-66
2022/07/19 07:35:47;;;;;;;3.40;1.63;;;;;;;;;;5008055;28;20726;-67
2022/07/19 07:38:14;;;;;;;2.85;1.52;;;;;;;;;;5010404;28;20212;-67
2022/07/19 07:40:43;;;;;;;1.60;1.50;;;;;;;;;;5006773;28;20712;-68
2022/07/19 07:43:11;;;;;;;5.32;1.73;;;;;;;;;;5020525;28;20213;-68
2022/07/19 07:45:38;;;;;;;3.15;2.08;;;;;;;;;;5037304;28;20222;-68
2022/07/19 07:48:06;;;;;;;2.45;1.73;;;;;;;;;;5034721;28;20206;-67
2022/07/19 07:50:33;;;;;;;3.85;2.03;;;;;;;;;;5016686;28;20683;-69
2022/07/19 07:53:00;;;;;;;7.82;2.13;;;;;;;;;;5009222;28;20726;-67
2022/07/19 07:55:28;;;;;;;7.22;2.08;;;;;;;;;;5007314;28;20217;-68
2022/07/19 07:57:57;;;;;;;2.97;1.70;;;;;;;;;;5028367;28;20209;-69
2022/07/19 08:00:25;;;;;;;3.55;1.70;;;;;;;;;;5010441;28;20203;-68
2022/07/19 08:02:53;;;;;;;2.53;1.80;;;;;;;;;;5028597;28;20228;-68
2022/07/19 08:05:22;;;;;;;2.80;1.75;;;;;;;;;;5016353;28;20631;-68
2022/07/19 08:07:49;;;;;;;2.28;1.83;;;;;;;;;;4995762;28;20566;-68
2022/07/19 08:10:20;;;;;;;3.05;1.75;;;;;;;;;;5023579;28;21561;-67
2022/07/19 08:12:47;;;;;;;2.17;1.83;;;;;;;;;;5008091;28;20226;-67
2022/07/19 08:15:15;;;;;;;2.25;1.90;;;;;;;;;;5017814;28;20918;-67
2022/07/19 08:17:42;;;;;;;2.17;1.98;;;;;;;;;;5014355;28;20237;-67
2022/07/19 08:20:10;;;;;;;2.25;1.77;;;;;;;;;;5001719;28;20206;-69
2022/07/19 08:22:37;;;;;;;4.28;1.85;;;;;;;;;;5008037;28;20214;-68
2022/07/19 08:25:05;;;;;;;2.30;2.10;;;;;;;;;;5005912;28;20297;-68
2022/07/19 08:27:33;;;;;;;1.80;1.70;;;;;;;;;;5008822;28;20755;-68
2022/07/19 08:30:01;;;;;;;3.22;1.70;;;;;;;;;;5010737;28;20631;-67
2022/07/19 08:32:34;;;;;;;3.50;1.90;;;;;;;;;;5007800;28;20237;-67
2022/07/19 08:35:02;;;;;;;4.10;2.10;;;;;;;;;;5012715;28;20256;-66
2022/07/19 08:37:29;;;;;;;2.25;2.05;;;;;;;;;;5006481;28;20351;-68
2022/07/19 08:39:57;;;;;;;2.10;1.75;;;;;;;;;;5010522;28;20202;-69
2022/07/19 08:42:25;;;;;;;2.35;2.15;;;;;;;;;;5018012;28;20252;-68
2022/07/19 08:45:04;;;;;;;2.08;1.90;;;;;;;;;;5013596;28;20217;-67
2022/07/19 08:47:32;;;;;;;4.22;2.40;;;;;;;;;;5017524;28;20237;-67
2022/07/19 08:50:00;;;;;;;3.50;2.35;;;;;;;;;;5017686;28;20572;-68
2022/07/19 08:52:27;;;;;;;2.80;2.38;;;;;;;;;;5014766;28;20695;-67
2022/07/19 08:54:56;;;;;;;2.10;2.00;;;;;;;;;;5018941;28;20395;-67
2022/07/19 09:00:11;;;;;;;2.92;2.30;;;;;;;;;;5024261;28;20276;-67
2022/07/19 09:03:12;;;;;;;5.68;2.28;;;;;;;;;;5016870;28;20218;-69
2022/07/19 09:05:40;;;;;;;5.93;2.58;;;;;;;;;;4994986;28;20272;-69
2022/07/19 09:08:11;;;;;;;2.30;2.20;;;;;;;;;;5023364;28;20576;-68
2022/07/19 09:10:40;;;;;;;2.65;2.30;;;;;;;;;;5022261;28;20216;-68
2022/07/19 09:13:08;;;;;;;3.03;2.70;;;;;;;;;;5020056;28;20231;-67
2022/07/19 09:15:46;;;;;;;4.22;2.28;;;;;;;;;;5021435;28;20447;-67
2022/07/19 09:18:15;;;;;;;2.63;2.40;;;;;;;;;;5008579;28;20421;-71
2022/07/19 09:20:43;;;;;;;4.45;2.60;;;;;;;;;;5007811;28;20202;-67
2022/07/19 09:23:11;;;;;;;2.92;2.45;;;;;;;;;;5008567;28;20218;-70
2022/07/19 09:25:49;;;;;;;3.50;2.92;;;;;;;;;;5005326;28;20210;-70
2022/07/19 09:28:17;;;;;;;5.05;2.90;;;;;;;;;;5006014;28;20225;-68
2022/07/19 09:30:46;;;;;;;3.80;3.00;;;;;;;;;;5017265;28;20206;-70
2022/07/19 09:33:15;;;;;;;2.90;2.60;;;;;;;;;;5010630;28;20226;-70
2022/07/19 09:35:50;;;;;;;8.77;3.58;;;;;;;;;;5021528;28;20238;-69
2022/07/19 09:38:18;;;;;;;5.75;3.22;;;;;;;;;;5006639;28;20751;-69
2022/07/19 09:40:46;;;;;;;3.85;3.15;;;;;;;;;;5005183;28;20211;-67
2022/07/19 09:43:13;;;;;;;7.45;3.15;;;;;;;;;;5006107;28;20218;-68
2022/07/19 09:46:01;;;;;;;4.43;3.05;;;;;;;;;;5019814;28;20244;-68
2022/07/19 09:48:43;;;;;;;4.75;2.78;;;;;;;;;;5007765;28;20499;-68
2022/07/19 09:51:11;;;;;;;3.55;2.78;;;;;;;;;;5020279;28;20249;-69
2022/07/19 09:53:39;;;;;;;3.55;2.70;;;;;;;;;;5009513;28;20277;-68
2022/07/19 09:56:06;;;;;;;3.65;2.63;;;;;;;;;;5009669;28;20234;-68
2022/07/19 09:58:34;;;;;;;3.97;2.83;;;;;;;;;;5007141;28;20214;-68
2022/07/19 10:01:02;;;;;;;6.03;2.53;;;;;;;;;;5007193;28;20298;-68
2022/07/19 10:03:29;;;;;;;2.63;2.42;;;;;;;;;;5009309;28;20206;-68
2022/07/19 10:05:57;;;;;;;2.90;2.70;;;;;;;;;;5021882;28;20292;-69
2022/07/19 10:08:24;;;;;;;2.97;2.30;;;;;;;;;;5023369;28;20218;-68
2022/07/19 10:10:53;;;;;;;2.95;2.20;;;;;;;;;;5016135;28;20226;-68
2022/07/19 10:13:21;;;;;;;5.05;2.35;;;;;;;;;;5020184;28;20291;-68
2022/07/19 10:15:49;;;;;;;2.72;2.42;;;;;;;;;;5041831;28;20329;-68
2022/07/19 10:18:20;;;;;;;2.97;2.20;;;;;;;;;;5022649;28;20300;-68
2022/07/19 10:20:48;;;;;;;2.47;2.03;;;;;;;;;;5039311;28;20208;-68
2022/07/19 10:23:15;;;;;;;2.00;1.88;;;;;;;;;;5021635;28;20217;-68
2022/07/19 10:25:44;;;;;;;4.15;1.80;;;;;;;;;;5036066;28;20601;-68
2022/07/19 10:28:31;;;;;;;4.93;2.10;;;;;;;;;;5021078;28;20202;-67
2022/07/19 10:31:37;;;;;;;2.03;1.80;;;;;;;;;;5024048;28;20210;-68
2022/07/19 10:34:06;;;;;;;2.88;1.80;;;;;;;;;;5024285;28;20244;-67
2022/07/19 10:36:35;;;;;;;2.33;1.92;;;;;;;;;;5020913;28;20230;-68
2022/07/19 10:39:21;;;;;;;3.83;1.80;;;;;;;;;;5021425;28;20202;-68
2022/07/19 10:42:07;;;;;;;3.90;1.60;;;;;;;;;;5039594;28;20206;-68
2022/07/19 10:44:35;;;;;;;1.98;1.75;;;;;;;;;;5045483;28;20199;-68
2022/07/19 10:47:03;;;;;;;1.75;1.60;;;;;;;;;;5022147;28;20261;-68
2022/07/19 10:49:44;;;;;;;1.83;1.73;;;;;;;;;;5018492;28;20604;-68
2022/07/19 10:52:28;;;;;;;2.92;1.52;;;;;;;;;;5016631;28;20213;-68
2022/07/19 10:55:14;;;;;;;3.45;1.83;;;;;;;;;;5025092;28;20206;-69
2022/07/19 10:57:42;;;;;;;3.85;1.92;;;;;;;;;;5019695;28;20226;-67
2022/07/19 11:00:17;;;;;;;4.03;1.60;;;;;;;;;;5019996;28;20572;-68
2022/07/19 11:02:45;;;;;;;3.95;1.58;;;;;;;;;;5016817;28;20664;-69
2022/07/19 11:05:22;;;;;;;2.47;1.52;;;;;;;;;;5021722;28;20381;-68
2022/07/19 11:07:51;;;;;;;2.92;1.67;;;;;;;;;;5017749;28;20225;-69
2022/07/19 11:10:27;;;;;;;3.25;2.00;;;;;;;;;;5037497;28;20215;-67
2022/07/19 11:12:56;;;;;;;1.75;1.60;;;;;;;;;;5011764;28;20645;-68
2022/07/19 11:15:28;;;;;;;1.95;1.80;;;;;;;;;;5014089;28;20210;-68
2022/07/19 11:18:05;;;;;;;1.83;1.60;;;;;;;;;;5021984;28;20892;-69
2022/07/19 11:20:33;;;;;;;1.85;1.45;;;;;;;;;;5023222;28;20202;-69
2022/07/19 11:23:03;;;;;;;1.83;1.60;;;;;;;;;;5025522;28;20715;-68
2022/07/19 11:25:32;;;;;;;2.58;1.60;;;;;;;;;;5014119;28;20264;-69
2022/07/19 11:28:00;;;;;;;1.80;1.70;;;;;;;;;;5008621;28;20202;-67
2022/07/19 11:30:35;;;;;;;3.58;1.80;;;;;;;;;;5023869;28;20203;-69
2022/07/19 11:33:04;;;;;;;2.55;1.88;;;;;;;;;;5003595;28;20387;-68
2022/07/19 11:35:33;;;;;;;2.28;1.98;;;;;;;;;;5009320;28;20266;-68
2022/07/19 11:38:01;;;;;;;2.90;2.10;;;;;;;;;;5006049;28;20194;-68
2022/07/19 11:40:33;;;;;;;3.10;1.88;;;;;;;;;;5003600;28;20822;-68
2022/07/19 11:43:04;;;;;;;2.17;1.98;;;;;;;;;;5011357;28;20716;-68
2022/07/19 11:45:47;;;;;;;6.93;2.00;;;;;;;;;;5018310;28;20425;-68
2022/07/19 11:48:25;;;;;;;7.15;2.03;;;;;;;;;;5019677;28;20206;-69
2022/07/19 11:51:07;;;;;;;3.03;2.30;;;;;;;;;;5034087;28;20732;-68
2022/07/19 11:53:35;;;;;;;3.80;1.90;;;;;;;;;;5014582;28;20650;-68
2022/07/19 11:56:03;;;;;;;6.68;1.90;;;;;;;;;;5017824;28;20226;-68
2022/07/19 11:58:31;;;;;;;3.05;2.38;;;;;;;;;;5041500;28;20209;-68
2022/07/19 12:01:03;;;;;;;3.83;2.20;;;;;;;;;;5034103;28;20206;-69
2022/07/19 12:03:30;;;;;;;2.67;1.95;;;;;;;;;;5016126;28;20203;-68
2022/07/19 12:06:00;;;;;;;5.45;2.38;;;;;;;;;;5035784;28;21323;-69
2022/07/19 12:08:35;;;;;;;4.28;2.25;;;;;;;;;;5012786;28;20214;-67
2022/07/19 12:11:15;;;;;;;2.30;1.90;;;;;;;;;;5019191;28;20202;-69
2022/07/19 12:13:43;;;;;;;3.08;2.20;;;;;;;;;;5032809;28;20762;-68
2022/07/19 12:16:15;;;;;;;2.83;2.20;;;;;;;;;;5015489;28;20286;-68
2022/07/19 12:18:43;;;;;;;2.38;2.17;;;;;;;;;;5020008;28;20233;-68
2022/07/19 12:21:18;;;;;;;4.00;2.20;;;;;;;;;;5024712;28;20202;-69
2022/07/19 12:24:04;;;;;;;21.40;4.25;;;;;;;;;;5028873;28;20212;-68
2022/07/19 12:26:32;;;;;;;3.47;2.13;;;;;;;;;;5019008;28;20226;-70
2022/07/19 12:29:20;;;;;;;3.85;2.42;;;;;;;;;;5034966;28;20631;-68
2022/07/19 12:31:48;;;;;;;6.03;2.80;;;;;;;;;;5018650;28;20235;-68
2022/07/19 12:34:16;;;;;;;2.88;2.60;;;;;;;;;;5035255;28;20252;-68
2022/07/19 12:36:43;;;;;;;4.63;2.40;;;;;;;;;;5044729;28;20226;-69
2022/07/19 12:39:21;;;;;;;2.13;1.92;;;;;;;;;;5038189;28;20263;-68
2022/07/19 12:42:02;;;;;;;2.60;2.40;;;;;;;;;;5021730;28;20209;-69
2022/07/19 12:44:30;;;;;;;4.50;2.53;;;;;;;;;;5023661;28;20202;-68
2022/07/19 12:46:58;;;;;;;5.30;2.15;;;;;;;;;;5015345;28;20221;-68
2022/07/19 12:49:50;;;;;;;6.88;2.63;;;;;;;;;;5036188;28;20217;-67
2022/07/19 12:52:31;;;;;;;6.93;2.80;;;;;;;;;;5039233;28;20293;-68
2022/07/19 12:54:58;;;;;;;3.53;2.35;;;;;;;;;;5027765;28;20453;-70
2022/07/19 12:57:27;;;;;;;7.38;2.97;;;;;;;;;;5016015;28;20237;-68
2022/07/19 12:59:55;;;;;;;4.43;2.42;;;;;;;;;;5019076;28;20897;-68
2022/07/19 13:02:23;;;;;;;3.63;2.60;;;;;;;;;;5027236;28;20201;-70
2022/07/19 13:04:50;;;;;;;5.10;2.47;;;;;;;;;;5023250;28;20245;-70
2022/07/19 13:07:18;;;;;;;7.25;2.80;;;;;;;;;;5026725;28;20777;-70
2022/07/19 13:09:46;;;;;;;3.05;2.42;;;;;;;;;;5020489;28;20216;-70
2022/07/19 13:12:13;;;;;;;5.97;2.60;;;;;;;;;;5031165;28;20209;-70
2022/07/19 13:14:41;;;;;;;3.10;2.80;;;;;;;;;;5027829;28;20605;-69
2022/07/19 13:17:10;;;;;;;4.97;2.95;;;;;;;;;;5013972;28;20994;-69
2022/07/19 13:19:38;;;;;;;;;;;;;;;;;;5016708;28;20498;-69
2022/07/19 13:22:05;;;;;;;;;;;;;;;;;;5014473;28;19920;-69
2022/07/19 13:24:32;;;;;;;;;;;;;;;;;;5015929;28;21017;-68
2022/07/19 13:27:20;;;;;;;;;;;;;;;;;;5020659;28;19967;-69
2022/07/19 13:29:47;;;;;;;;;;;;;;;;;;5025665;28;19924;-67
2022/07/19 13:32:14;;;;;;;;;;;;;;;;;;5022015;28;19928;-68
2022/07/19 13:34:42;;;;;;;;;;;;;;;;;;5021623;28;19925;-69
2022/07/19 13:37:09;;;;;;;;;;;;;;;;;;5016863;28;19927;-67
2022/07/19 13:39:36;;;;;;;;;;;;;;;;;;5020988;28;19929;-68
2022/07/19 13:42:03;;;;;;;;;;;;;;;;;;5022416;28;20409;-68
2022/07/19 13:44:31;;;;;;;;;;;;;;;;;;5037900;28;19944;-67
2022/07/19 13:46:58;;;;;;;;;;;;;;;;;;5029093;28;20125;-67
2022/07/19 13:49:25;;;;;;;;;;;;;;;;;;5023905;28;19925;-69
2022/07/19 13:51:52;;;;;;;;;;;;;;;;;;5025937;28;19921;-69
2022/07/19 13:54:20;;;;;;;;;;;;;;;;;;5034882;28;20303;-68
2022/07/19 13:56:47;;;;;;;;;;;;;;;;;;5019989;28;20011;-68
2022/07/19 13:59:15;;;;;;;;;;;;;;;;;;5020120;28;20307;-68
2022/07/19 14:01:42;;;;;;;;;;;;;;;;;;5017523;28;20271;-69
2022/07/19 14:04:12;;;;;;;;;;;;;;;;;;5017637;28;19929;-68
2022/07/19 14:06:46;;;;;;;;;;;;;;;;;;5024438;28;20405;-68
2022/07/19 14:09:13;;;;;;;;;;;;;;;;;;5024662;28;20367;-68
2022/07/19 14:11:41;;;;;;;;;;;;;;;;;;5025252;28;19924;-69
2022/07/19 14:14:08;;;;;;;;;;;;;;;;;;5014330;28;19979;-68
2022/07/19 14:16:36;;;;;;;;;;;;;;;;;;5026508;28;19921;-67
2022/07/19 14:19:06;;;;;;;;;;;;;;;;;;5040342;28;19982;-68
2022/07/19 14:21:34;;;;;;;;;;;;;;;;;;5028205;28;20004;-68
2022/07/19 14:24:02;;;;;;;;;;;;;;;;;;5021219;28;19928;-67
2022/07/19 14:26:29;;;;;;;;;;;;;;;;;;5022194;28;19927;-68
2022/07/19 14:28:56;;;;;;;;;;;;;;;;;;5021016;28;19928;-70
2022/07/19 14:31:23;;;;;;;;;;;;;;;;;;5021110;28;19935;-68
2022/07/19 14:33:50;;;;;;;;;;;;;;;;;;5021867;28;19928;-69
2022/07/19 14:36:32;;;;;;;;;;;;;;;;;;5016918;28;19924;-68
2022/07/19 14:38:59;;;;;;;;;;;;;;;;;;5042651;28;19933;-70
2022/07/19 14:41:27;;;;;;;;;;;;;;;;;;5016884;28;19971;-70
2022/07/19 14:43:54;;;;;;;;;;;;;;;;;;5023207;28;19921;-69
2022/07/19 14:46:21;;;;;;;;;;;;;;;;;;5022658;28;19921;-69
2022/07/19 14:48:48;;;;;;;;;;;;;;;;;;5018564;28;19974;-69
2022/07/19 14:51:16;;;;;;;;;;;;;;;;;;5026191;28;20270;-68
2022/07/19 14:53:44;;;;;;;;;;;;;;;;;;5030902;28;19929;-68
2022/07/19 14:56:11;;;;;;;;;;;;;;;;;;5035722;28;20290;-69
2022/07/19 14:58:38;;;;;;;;;;;;;;;;;;5036044;28;20011;-67
2022/07/19 15:01:05;;;;;;;;;;;;;;;;;;5036054;28;19979;-68
2022/07/19 15:03:33;;;;;;;;;;;;;;;;;;5031706;28;19921;-68
2022/07/19 15:06:00;;;;;;;;;;;;;;;;;;5022741;28;20011;-67
2022/07/19 15:08:27;;;;;;;;;;;;;;;;;;5021719;28;19924;-68
2022/07/19 15:10:54;;;;;;;;;;;;;;;;;;5022952;28;19925;-68